sensor_id;sensor_type;location;lat;lon;timestamp;P1;durP1;ratioP1;P2;durP2;ratioP2
18693;SDS011;9477;51.414;10.362;2023-02-11T00:01:30;43.67;;;24.53;;
18693;SDS011;9477;51.414;10.362;2023-02-11T00:03:34;41.47;;;24.23;;
18693;SDS011;9477;51.414;10.362;2023-02-11T00:05:37;42.50;;;23.77;;
18693;SDS011;9477;51.414;10.362;2023-02-11T00:07:39;41.20;;;24.17;;
18693;SDS011;9477;51.414;10.362;2023-02-11T00:09:42;44.53;;;24.83;;
18693;SDS011;9477;51.414;10.362;2023-02-11T00:11:45;45.77;;;25.13;;
18693;SDS011;9477;51.414;10.362;2023-02-11T00:13:49;42.43;;;25.33;;
18693;SDS011;9477;51.414;10.362;2023-02-11T00:15:52;43.53;;;25.53;;
18693;SDS011;9477;51.414;10.362;2023-02-11T00:17:55;45.03;;;25.77;;
18693;SDS011;9477;51.414;10.362;2023-02-11T00:19:58;43.27;;;25.10;;
18693;SDS011;9477;51.414;10.362;2023-02-11T00:22:01;46.80;;;25.37;;
18693;SDS011;9477;51.414;10.362;2023-02-11T00:24:03;40.47;;;24.03;;
18693;SDS011;9477;51.414;10.362;2023-02-11T00:26:10;41.63;;;23.43;;
18693;SDS011;9477;51.414;10.362;2023-02-11T00:28:13;40.60;;;24.47;;
18693;SDS011;9477;51.414;10.362;2023-02-11T00:30:17;45.07;;;25.30;;
18693;SDS011;9477;51.414;10.362;2023-02-11T00:32:20;40.40;;;25.17;;
18693;SDS011;9477;51.414;10.362;2023-02-11T00:34:23;40.80;;;24.20;;
18693;SDS011;9477;51.414;10.362;2023-02-11T00:36:26;39.57;;;24.40;;
18693;SDS011;9477;51.414;10.362;2023-02-11T00:38:30;43.60;;;25.20;;
18693;SDS011;9477;51.414;10.362;2023-02-11T00:40:33;39.03;;;22.53;;
18693;SDS011;9477;51.414;10.362;2023-02-11T00:42:35;43.03;;;23.43;;
18693;SDS011;9477;51.414;10.362;2023-02-11T00:44:38;39.23;;;23.53;;
18693;SDS011;9477;51.414;10.362;2023-02-11T00:46:42;40.83;;;25.27;;
18693;SDS011;9477;51.414;10.362;2023-02-11T00:48:45;44.20;;;24.87;;
18693;SDS011;9477;51.414;10.362;2023-02-11T00:50:48;41.23;;;24.80;;
18693;SDS011;9477;51.414;10.362;2023-02-11T00:52:51;41.00;;;24.33;;
18693;SDS011;9477;51.414;10.362;2023-02-11T00:54:54;41.43;;;25.37;;
18693;SDS011;9477;51.414;10.362;2023-02-11T00:56:57;42.00;;;24.90;;
18693;SDS011;9477;51.414;10.362;2023-02-11T00:58:59;42.93;;;24.53;;
18693;SDS011;9477;51.414;10.362;2023-02-11T01:01:02;41.00;;;25.07;;
18693;SDS011;9477;51.414;10.362;2023-02-11T01:03:07;38.50;;;24.90;;
18693;SDS011;9477;51.414;10.362;2023-02-11T01:05:10;43.43;;;25.17;;
18693;SDS011;9477;51.414;10.362;2023-02-11T01:07:13;42.67;;;25.03;;
18693;SDS011;9477;51.414;10.362;2023-02-11T01:09:16;39.83;;;23.93;;
18693;SDS011;9477;51.414;10.362;2023-02-11T01:11:20;42.67;;;25.07;;
18693;SDS011;9477;51.414;10.362;2023-02-11T01:13:23;40.73;;;25.07;;
18693;SDS011;9477;51.414;10.362;2023-02-11T01:15:27;41.37;;;24.80;;
18693;SDS011;9477;51.414;10.362;2023-02-11T01:17:30;41.87;;;24.17;;
18693;SDS011;9477;51.414;10.362;2023-02-11T01:19:34;44.10;;;25.10;;
18693;SDS011;9477;51.414;10.362;2023-02-11T01:21:37;40.37;;;24.00;;
18693;SDS011;9477;51.414;10.362;2023-02-11T01:23:40;40.90;;;25.20;;
18693;SDS011;9477;51.414;10.362;2023-02-11T01:25:43;38.27;;;23.83;;
18693;SDS011;9477;51.414;10.362;2023-02-11T01:27:46;40.57;;;24.77;;
18693;SDS011;9477;51.414;10.362;2023-02-11T01:29:49;41.30;;;24.20;;
18693;SDS011;9477;51.414;10.362;2023-02-11T01:31:52;40.77;;;24.33;;
18693;SDS011;9477;51.414;10.362;2023-02-11T01:33:55;37.60;;;24.00;;
18693;SDS011;9477;51.414;10.362;2023-02-11T01:36:00;43.87;;;24.57;;
18693;SDS011;9477;51.414;10.362;2023-02-11T01:38:03;40.63;;;24.53;;
18693;SDS011;9477;51.414;10.362;2023-02-11T01:40:10;40.43;;;24.13;;
18693;SDS011;9477;51.414;10.362;2023-02-11T01:42:15;43.83;;;23.57;;
18693;SDS011;9477;51.414;10.362;2023-02-11T01:44:20;41.23;;;24.13;;
18693;SDS011;9477;51.414;10.362;2023-02-11T01:46:31;38.27;;;23.90;;
18693;SDS011;9477;51.414;10.362;2023-02-11T01:48:36;41.47;;;22.97;;
18693;SDS011;9477;51.414;10.362;2023-02-11T01:50:42;37.03;;;22.23;;
18693;SDS011;9477;51.414;10.362;2023-02-11T01:52:50;43.40;;;24.03;;
18693;SDS011;9477;51.414;10.362;2023-02-11T01:54:53;39.63;;;24.37;;
18693;SDS011;9477;51.414;10.362;2023-02-11T01:57:19;40.83;;;23.17;;
18693;SDS011;9477;51.414;10.362;2023-02-11T01:59:23;40.67;;;24.23;;
18693;SDS011;9477;51.414;10.362;2023-02-11T02:01:30;37.73;;;22.53;;
18693;SDS011;9477;51.414;10.362;2023-02-11T02:03:35;41.00;;;24.07;;
18693;SDS011;9477;51.414;10.362;2023-02-11T02:05:44;42.10;;;23.43;;
18693;SDS011;9477;51.414;10.362;2023-02-11T02:07:53;41.97;;;24.53;;
18693;SDS011;9477;51.414;10.362;2023-02-11T02:10:02;40.57;;;23.27;;
18693;SDS011;9477;51.414;10.362;2023-02-11T02:12:09;38.23;;;23.57;;
18693;SDS011;9477;51.414;10.362;2023-02-11T02:14:11;40.93;;;23.93;;
18693;SDS011;9477;51.414;10.362;2023-02-11T02:16:15;39.23;;;23.53;;
18693;SDS011;9477;51.414;10.362;2023-02-11T02:18:25;38.10;;;23.40;;
18693;SDS011;9477;51.414;10.362;2023-02-11T02:20:39;39.23;;;22.30;;
18693;SDS011;9477;51.414;10.362;2023-02-11T02:25:34;42.10;;;24.03;;
18693;SDS011;9477;51.414;10.362;2023-02-11T02:27:59;39.83;;;22.57;;
18693;SDS011;9477;51.414;10.362;2023-02-11T02:30:38;40.13;;;22.67;;
18693;SDS011;9477;51.414;10.362;2023-02-11T02:32:58;40.30;;;22.30;;
18693;SDS011;9477;51.414;10.362;2023-02-11T02:35:25;38.93;;;19.60;;
18693;SDS011;9477;51.414;10.362;2023-02-11T02:37:35;43.17;;;23.93;;
18693;SDS011;9477;51.414;10.362;2023-02-11T02:39:42;41.37;;;23.17;;
18693;SDS011;9477;51.414;10.362;2023-02-11T02:41:48;45.50;;;25.70;;
18693;SDS011;9477;51.414;10.362;2023-02-11T02:43:52;41.27;;;23.90;;
18693;SDS011;9477;51.414;10.362;2023-02-11T02:46:07;41.20;;;24.13;;
18693;SDS011;9477;51.414;10.362;2023-02-11T02:48:28;40.17;;;23.57;;
18693;SDS011;9477;51.414;10.362;2023-02-11T02:50:33;43.80;;;24.60;;
18693;SDS011;9477;51.414;10.362;2023-02-11T02:52:40;40.60;;;24.37;;
18693;SDS011;9477;51.414;10.362;2023-02-11T02:54:52;42.47;;;23.77;;
18693;SDS011;9477;51.414;10.362;2023-02-11T02:57:16;38.97;;;23.73;;
18693;SDS011;9477;51.414;10.362;2023-02-11T02:59:33;48.53;;;25.43;;
18693;SDS011;9477;51.414;10.362;2023-02-11T03:01:47;43.60;;;23.90;;
18693;SDS011;9477;51.414;10.362;2023-02-11T03:04:01;41.00;;;24.53;;
18693;SDS011;9477;51.414;10.362;2023-02-11T03:06:11;42.13;;;24.53;;
18693;SDS011;9477;51.414;10.362;2023-02-11T03:08:19;46.67;;;24.87;;
18693;SDS011;9477;51.414;10.362;2023-02-11T03:10:29;45.50;;;25.47;;
18693;SDS011;9477;51.414;10.362;2023-02-11T03:12:34;43.23;;;24.33;;
18693;SDS011;9477;51.414;10.362;2023-02-11T03:14:38;40.63;;;23.73;;
18693;SDS011;9477;51.414;10.362;2023-02-11T03:16:42;40.57;;;24.90;;
18693;SDS011;9477;51.414;10.362;2023-02-11T03:18:47;41.43;;;25.03;;
18693;SDS011;9477;51.414;10.362;2023-02-11T03:20:55;42.27;;;25.33;;
18693;SDS011;9477;51.414;10.362;2023-02-11T03:23:03;41.53;;;24.93;;
18693;SDS011;9477;51.414;10.362;2023-02-11T03:25:12;39.43;;;23.93;;
18693;SDS011;9477;51.414;10.362;2023-02-11T03:27:17;35.23;;;19.03;;
18693;SDS011;9477;51.414;10.362;2023-02-11T03:29:25;40.60;;;23.67;;
18693;SDS011;9477;51.414;10.362;2023-02-11T03:31:36;39.70;;;23.17;;
18693;SDS011;9477;51.414;10.362;2023-02-11T03:33:45;41.40;;;23.00;;
18693;SDS011;9477;51.414;10.362;2023-02-11T03:35:56;38.83;;;22.87;;
18693;SDS011;9477;51.414;10.362;2023-02-11T03:38:04;36.10;;;22.67;;
18693;SDS011;9477;51.414;10.362;2023-02-11T03:40:11;40.93;;;23.40;;
18693;SDS011;9477;51.414;10.362;2023-02-11T03:42:16;35.83;;;21.07;;
18693;SDS011;9477;51.414;10.362;2023-02-11T03:44:20;42.57;;;23.07;;
18693;SDS011;9477;51.414;10.362;2023-02-11T03:46:27;35.93;;;22.67;;
18693;SDS011;9477;51.414;10.362;2023-02-11T03:48:34;44.57;;;23.10;;
18693;SDS011;9477;51.414;10.362;2023-02-11T03:50:39;38.67;;;21.87;;
18693;SDS011;9477;51.414;10.362;2023-02-11T03:52:44;40.07;;;22.67;;
18693;SDS011;9477;51.414;10.362;2023-02-11T03:54:50;40.47;;;23.33;;
18693;SDS011;9477;51.414;10.362;2023-02-11T03:56:58;36.80;;;22.93;;
18693;SDS011;9477;51.414;10.362;2023-02-11T03:59:02;43.27;;;23.87;;
18693;SDS011;9477;51.414;10.362;2023-02-11T04:01:05;37.87;;;23.13;;
18693;SDS011;9477;51.414;10.362;2023-02-11T04:03:10;42.57;;;24.37;;
18693;SDS011;9477;51.414;10.362;2023-02-11T04:05:14;39.90;;;22.37;;
18693;SDS011;9477;51.414;10.362;2023-02-11T04:07:17;41.30;;;22.17;;
18693;SDS011;9477;51.414;10.362;2023-02-11T04:09:21;43.63;;;23.57;;
18693;SDS011;9477;51.414;10.362;2023-02-11T04:11:24;37.53;;;21.27;;
18693;SDS011;9477;51.414;10.362;2023-02-11T04:13:27;43.87;;;23.60;;
18693;SDS011;9477;51.414;10.362;2023-02-11T04:15:30;39.73;;;22.20;;
18693;SDS011;9477;51.414;10.362;2023-02-11T04:17:32;45.23;;;24.93;;
18693;SDS011;9477;51.414;10.362;2023-02-11T04:19:35;43.60;;;24.30;;
18693;SDS011;9477;51.414;10.362;2023-02-11T04:21:38;40.40;;;23.07;;
18693;SDS011;9477;51.414;10.362;2023-02-11T04:23:41;40.87;;;22.03;;
18693;SDS011;9477;51.414;10.362;2023-02-11T04:25:45;44.20;;;23.17;;
18693;SDS011;9477;51.414;10.362;2023-02-11T04:27:48;39.97;;;22.83;;
18693;SDS011;9477;51.414;10.362;2023-02-11T04:29:50;38.80;;;22.53;;
18693;SDS011;9477;51.414;10.362;2023-02-11T04:31:54;42.10;;;22.53;;
18693;SDS011;9477;51.414;10.362;2023-02-11T04:33:57;35.47;;;20.43;;
18693;SDS011;9477;51.414;10.362;2023-02-11T04:35:59;40.57;;;22.50;;
18693;SDS011;9477;51.414;10.362;2023-02-11T04:38:02;35.77;;;20.07;;
18693;SDS011;9477;51.414;10.362;2023-02-11T04:40:05;42.83;;;23.20;;
18693;SDS011;9477;51.414;10.362;2023-02-11T04:42:10;41.10;;;23.60;;
18693;SDS011;9477;51.414;10.362;2023-02-11T04:44:13;44.60;;;23.03;;
18693;SDS011;9477;51.414;10.362;2023-02-11T04:46:16;40.27;;;20.97;;
18693;SDS011;9477;51.414;10.362;2023-02-11T04:48:19;37.73;;;22.33;;
18693;SDS011;9477;51.414;10.362;2023-02-11T04:50:21;41.37;;;22.03;;
18693;SDS011;9477;51.414;10.362;2023-02-11T04:52:24;38.87;;;21.87;;
18693;SDS011;9477;51.414;10.362;2023-02-11T04:54:27;41.93;;;22.23;;
18693;SDS011;9477;51.414;10.362;2023-02-11T04:56:30;40.60;;;22.80;;
18693;SDS011;9477;51.414;10.362;2023-02-11T04:58:34;41.03;;;21.53;;
18693;SDS011;9477;51.414;10.362;2023-02-11T05:00:36;42.17;;;21.70;;
18693;SDS011;9477;51.414;10.362;2023-02-11T05:02:39;41.67;;;22.63;;
18693;SDS011;9477;51.414;10.362;2023-02-11T05:04:42;36.43;;;20.43;;
18693;SDS011;9477;51.414;10.362;2023-02-11T05:06:44;38.00;;;22.50;;
18693;SDS011;9477;51.414;10.362;2023-02-11T05:08:47;37.53;;;22.23;;
18693;SDS011;9477;51.414;10.362;2023-02-11T05:10:50;35.80;;;20.83;;
18693;SDS011;9477;51.414;10.362;2023-02-11T05:12:53;44.83;;;22.37;;
18693;SDS011;9477;51.414;10.362;2023-02-11T05:14:57;42.53;;;24.27;;
18693;SDS011;9477;51.414;10.362;2023-02-11T05:17:00;43.03;;;23.07;;
18693;SDS011;9477;51.414;10.362;2023-02-11T05:19:03;38.00;;;19.70;;
18693;SDS011;9477;51.414;10.362;2023-02-11T05:21:06;38.83;;;23.23;;
18693;SDS011;9477;51.414;10.362;2023-02-11T05:23:09;40.20;;;23.03;;
18693;SDS011;9477;51.414;10.362;2023-02-11T05:25:12;42.93;;;22.87;;
18693;SDS011;9477;51.414;10.362;2023-02-11T05:27:15;38.60;;;23.07;;
18693;SDS011;9477;51.414;10.362;2023-02-11T05:29:18;42.93;;;22.87;;
18693;SDS011;9477;51.414;10.362;2023-02-11T05:31:22;36.83;;;22.40;;
18693;SDS011;9477;51.414;10.362;2023-02-11T05:33:24;39.87;;;22.27;;
18693;SDS011;9477;51.414;10.362;2023-02-11T05:35:27;40.43;;;23.37;;
18693;SDS011;9477;51.414;10.362;2023-02-11T05:37:30;41.27;;;22.33;;
18693;SDS011;9477;51.414;10.362;2023-02-11T05:39:33;42.17;;;24.03;;
18693;SDS011;9477;51.414;10.362;2023-02-11T05:41:36;41.57;;;22.60;;
18693;SDS011;9477;51.414;10.362;2023-02-11T05:43:38;42.80;;;23.97;;
18693;SDS011;9477;51.414;10.362;2023-02-11T05:45:41;43.03;;;22.80;;
18693;SDS011;9477;51.414;10.362;2023-02-11T05:47:45;38.07;;;23.17;;
18693;SDS011;9477;51.414;10.362;2023-02-11T05:49:48;36.43;;;22.33;;
18693;SDS011;9477;51.414;10.362;2023-02-11T05:51:51;38.87;;;22.67;;
18693;SDS011;9477;51.414;10.362;2023-02-11T05:53:54;47.13;;;26.13;;
18693;SDS011;9477;51.414;10.362;2023-02-11T05:55:56;43.07;;;24.13;;
18693;SDS011;9477;51.414;10.362;2023-02-11T05:57:59;38.27;;;23.10;;
18693;SDS011;9477;51.414;10.362;2023-02-11T06:00:02;39.70;;;23.53;;
18693;SDS011;9477;51.414;10.362;2023-02-11T06:02:08;43.80;;;23.53;;
18693;SDS011;9477;51.414;10.362;2023-02-11T06:04:13;36.67;;;21.90;;
18693;SDS011;9477;51.414;10.362;2023-02-11T06:06:15;31.87;;;18.60;;
18693;SDS011;9477;51.414;10.362;2023-02-11T06:08:19;40.67;;;23.10;;
18693;SDS011;9477;51.414;10.362;2023-02-11T06:10:21;41.17;;;24.40;;
18693;SDS011;9477;51.414;10.362;2023-02-11T06:12:24;43.73;;;24.20;;
18693;SDS011;9477;51.414;10.362;2023-02-11T06:14:27;45.00;;;24.13;;
18693;SDS011;9477;51.414;10.362;2023-02-11T06:16:29;36.80;;;20.57;;
18693;SDS011;9477;51.414;10.362;2023-02-11T06:18:32;43.73;;;24.73;;
18693;SDS011;9477;51.414;10.362;2023-02-11T06:20:36;40.23;;;23.87;;
18693;SDS011;9477;51.414;10.362;2023-02-11T06:22:40;44.93;;;25.80;;
18693;SDS011;9477;51.414;10.362;2023-02-11T06:24:43;46.13;;;23.83;;
18693;SDS011;9477;51.414;10.362;2023-02-11T06:27:02;45.60;;;25.67;;
18693;SDS011;9477;51.414;10.362;2023-02-11T06:29:04;40.53;;;24.97;;
18693;SDS011;9477;51.414;10.362;2023-02-11T06:31:07;42.00;;;24.03;;
18693;SDS011;9477;51.414;10.362;2023-02-11T06:33:11;44.50;;;24.90;;
18693;SDS011;9477;51.414;10.362;2023-02-11T06:35:14;42.70;;;23.97;;
18693;SDS011;9477;51.414;10.362;2023-02-11T06:37:18;47.03;;;26.73;;
18693;SDS011;9477;51.414;10.362;2023-02-11T06:39:21;37.20;;;22.93;;
18693;SDS011;9477;51.414;10.362;2023-02-11T06:41:24;49.23;;;26.43;;
18693;SDS011;9477;51.414;10.362;2023-02-11T06:43:27;45.90;;;24.63;;
18693;SDS011;9477;51.414;10.362;2023-02-11T06:45:29;42.80;;;25.60;;
18693;SDS011;9477;51.414;10.362;2023-02-11T06:47:32;44.63;;;24.70;;
18693;SDS011;9477;51.414;10.362;2023-02-11T06:49:35;47.57;;;25.93;;
18693;SDS011;9477;51.414;10.362;2023-02-11T06:51:38;42.27;;;25.67;;
18693;SDS011;9477;51.414;10.362;2023-02-11T06:53:44;48.13;;;27.33;;
18693;SDS011;9477;51.414;10.362;2023-02-11T06:55:47;54.27;;;27.03;;
18693;SDS011;9477;51.414;10.362;2023-02-11T06:57:50;63.97;;;35.33;;
18693;SDS011;9477;51.414;10.362;2023-02-11T06:59:53;178.73;;;74.70;;
18693;SDS011;9477;51.414;10.362;2023-02-11T07:01:56;114.23;;;48.63;;
18693;SDS011;9477;51.414;10.362;2023-02-11T07:03:59;47.87;;;24.50;;
18693;SDS011;9477;51.414;10.362;2023-02-11T07:06:01;94.23;;;46.90;;
18693;SDS011;9477;51.414;10.362;2023-02-11T07:08:05;54.90;;;29.20;;
18693;SDS011;9477;51.414;10.362;2023-02-11T07:10:09;53.63;;;28.73;;
18693;SDS011;9477;51.414;10.362;2023-02-11T07:12:12;49.70;;;27.20;;
18693;SDS011;9477;51.414;10.362;2023-02-11T07:14:15;45.30;;;26.90;;
18693;SDS011;9477;51.414;10.362;2023-02-11T07:16:18;42.27;;;24.77;;
18693;SDS011;9477;51.414;10.362;2023-02-11T07:18:21;47.10;;;27.23;;
18693;SDS011;9477;51.414;10.362;2023-02-11T07:20:24;46.10;;;28.57;;
18693;SDS011;9477;51.414;10.362;2023-02-11T07:22:26;49.73;;;27.30;;
18693;SDS011;9477;51.414;10.362;2023-02-11T07:24:29;45.50;;;26.23;;
18693;SDS011;9477;51.414;10.362;2023-02-11T07:26:33;48.37;;;27.07;;
18693;SDS011;9477;51.414;10.362;2023-02-11T07:28:37;48.47;;;27.30;;
18693;SDS011;9477;51.414;10.362;2023-02-11T07:30:41;42.90;;;25.27;;
18693;SDS011;9477;51.414;10.362;2023-02-11T07:32:43;43.20;;;25.47;;
18693;SDS011;9477;51.414;10.362;2023-02-11T07:34:46;48.00;;;26.37;;
18693;SDS011;9477;51.414;10.362;2023-02-11T07:36:49;42.67;;;25.40;;
18693;SDS011;9477;51.414;10.362;2023-02-11T07:38:52;43.07;;;25.50;;
18693;SDS011;9477;51.414;10.362;2023-02-11T07:40:58;40.47;;;24.77;;
18693;SDS011;9477;51.414;10.362;2023-02-11T07:43:02;45.23;;;25.70;;
18693;SDS011;9477;51.414;10.362;2023-02-11T07:45:05;45.73;;;25.57;;
18693;SDS011;9477;51.414;10.362;2023-02-11T07:47:09;44.63;;;26.50;;
18693;SDS011;9477;51.414;10.362;2023-02-11T07:49:11;45.13;;;26.53;;
18693;SDS011;9477;51.414;10.362;2023-02-11T07:51:15;39.50;;;23.17;;
18693;SDS011;9477;51.414;10.362;2023-02-11T07:53:19;42.93;;;24.97;;
18693;SDS011;9477;51.414;10.362;2023-02-11T07:55:22;46.60;;;27.50;;
18693;SDS011;9477;51.414;10.362;2023-02-11T07:57:27;40.47;;;25.20;;
18693;SDS011;9477;51.414;10.362;2023-02-11T07:59:31;39.87;;;23.63;;
18693;SDS011;9477;51.414;10.362;2023-02-11T08:01:34;44.53;;;25.30;;
18693;SDS011;9477;51.414;10.362;2023-02-11T08:03:37;38.70;;;24.03;;
18693;SDS011;9477;51.414;10.362;2023-02-11T08:05:41;42.23;;;24.97;;
18693;SDS011;9477;51.414;10.362;2023-02-11T08:07:44;43.53;;;24.83;;
18693;SDS011;9477;51.414;10.362;2023-02-11T08:09:46;43.87;;;25.10;;
18693;SDS011;9477;51.414;10.362;2023-02-11T08:11:49;40.70;;;24.97;;
18693;SDS011;9477;51.414;10.362;2023-02-11T08:13:52;40.53;;;25.67;;
18693;SDS011;9477;51.414;10.362;2023-02-11T08:15:57;40.33;;;24.20;;
18693;SDS011;9477;51.414;10.362;2023-02-11T08:18:00;39.53;;;24.27;;
18693;SDS011;9477;51.414;10.362;2023-02-11T08:20:03;44.63;;;24.63;;
18693;SDS011;9477;51.414;10.362;2023-02-11T08:22:07;35.93;;;22.87;;
18693;SDS011;9477;51.414;10.362;2023-02-11T08:24:10;42.80;;;24.03;;
18693;SDS011;9477;51.414;10.362;2023-02-11T08:26:13;41.23;;;24.77;;
18693;SDS011;9477;51.414;10.362;2023-02-11T08:28:18;40.20;;;22.97;;
18693;SDS011;9477;51.414;10.362;2023-02-11T08:30:21;38.13;;;23.20;;
18693;SDS011;9477;51.414;10.362;2023-02-11T08:32:28;38.50;;;23.47;;
18693;SDS011;9477;51.414;10.362;2023-02-11T08:34:31;41.23;;;24.60;;
18693;SDS011;9477;51.414;10.362;2023-02-11T08:36:35;39.67;;;24.43;;
18693;SDS011;9477;51.414;10.362;2023-02-11T08:38:38;40.53;;;24.03;;
18693;SDS011;9477;51.414;10.362;2023-02-11T08:40:41;36.20;;;22.90;;
18693;SDS011;9477;51.414;10.362;2023-02-11T08:42:44;34.60;;;22.70;;
18693;SDS011;9477;51.414;10.362;2023-02-11T08:44:47;32.30;;;20.50;;
18693;SDS011;9477;51.414;10.362;2023-02-11T08:46:50;37.73;;;23.83;;
18693;SDS011;9477;51.414;10.362;2023-02-11T08:48:55;34.97;;;22.40;;
18693;SDS011;9477;51.414;10.362;2023-02-11T08:50:57;37.53;;;22.67;;
18693;SDS011;9477;51.414;10.362;2023-02-11T08:53:00;37.80;;;23.00;;
18693;SDS011;9477;51.414;10.362;2023-02-11T08:55:03;36.57;;;23.37;;
18693;SDS011;9477;51.414;10.362;2023-02-11T08:57:06;42.10;;;25.40;;
18693;SDS011;9477;51.414;10.362;2023-02-11T08:59:10;37.73;;;23.70;;
18693;SDS011;9477;51.414;10.362;2023-02-11T09:01:16;44.03;;;24.17;;
18693;SDS011;9477;51.414;10.362;2023-02-11T09:03:23;63.47;;;33.47;;
18693;SDS011;9477;51.414;10.362;2023-02-11T09:05:27;70.57;;;35.43;;
18693;SDS011;9477;51.414;10.362;2023-02-11T09:07:30;36.13;;;21.03;;
18693;SDS011;9477;51.414;10.362;2023-02-11T09:09:32;37.50;;;23.17;;
18693;SDS011;9477;51.414;10.362;2023-02-11T09:11:35;39.70;;;22.50;;
18693;SDS011;9477;51.414;10.362;2023-02-11T09:13:39;36.80;;;19.93;;
18693;SDS011;9477;51.414;10.362;2023-02-11T09:15:43;27.97;;;16.70;;
18693;SDS011;9477;51.414;10.362;2023-02-11T09:17:46;39.97;;;22.37;;
18693;SDS011;9477;51.414;10.362;2023-02-11T09:19:49;34.87;;;20.20;;
18693;SDS011;9477;51.414;10.362;2023-02-11T09:21:53;38.13;;;22.23;;
18693;SDS011;9477;51.414;10.362;2023-02-11T09:23:56;30.57;;;16.33;;
18693;SDS011;9477;51.414;10.362;2023-02-11T09:25:59;35.00;;;21.37;;
18693;SDS011;9477;51.414;10.362;2023-02-11T09:28:09;33.67;;;20.83;;
18693;SDS011;9477;51.414;10.362;2023-02-11T09:30:12;28.97;;;19.73;;
18693;SDS011;9477;51.414;10.362;2023-02-11T09:32:15;31.87;;;19.20;;
18693;SDS011;9477;51.414;10.362;2023-02-11T09:34:18;42.30;;;25.43;;
18693;SDS011;9477;51.414;10.362;2023-02-11T09:36:22;37.80;;;23.27;;
18693;SDS011;9477;51.414;10.362;2023-02-11T09:38:27;32.93;;;20.33;;
18693;SDS011;9477;51.414;10.362;2023-02-11T09:40:30;27.73;;;17.50;;
18693;SDS011;9477;51.414;10.362;2023-02-11T09:42:38;29.53;;;19.20;;
18693;SDS011;9477;51.414;10.362;2023-02-11T09:44:45;30.80;;;20.53;;
18693;SDS011;9477;51.414;10.362;2023-02-11T09:46:51;35.70;;;21.60;;
18693;SDS011;9477;51.414;10.362;2023-02-11T09:48:56;31.37;;;19.40;;
18693;SDS011;9477;51.414;10.362;2023-02-11T09:51:00;27.43;;;17.87;;
18693;SDS011;9477;51.414;10.362;2023-02-11T09:53:09;31.10;;;16.00;;
18693;SDS011;9477;51.414;10.362;2023-02-11T09:55:20;30.70;;;17.53;;
18693;SDS011;9477;51.414;10.362;2023-02-11T09:57:27;34.83;;;22.40;;
18693;SDS011;9477;51.414;10.362;2023-02-11T09:59:34;30.80;;;20.60;;
18693;SDS011;9477;51.414;10.362;2023-02-11T10:01:38;26.77;;;16.73;;
18693;SDS011;9477;51.414;10.362;2023-02-11T10:03:47;34.13;;;20.07;;
18693;SDS011;9477;51.414;10.362;2023-02-11T10:06:06;33.67;;;16.33;;
18693;SDS011;9477;51.414;10.362;2023-02-11T10:08:22;27.53;;;16.53;;
18693;SDS011;9477;51.414;10.362;2023-02-11T10:10:36;28.87;;;17.20;;
18693;SDS011;9477;51.414;10.362;2023-02-11T10:12:49;31.57;;;19.93;;
18693;SDS011;9477;51.414;10.362;2023-02-11T10:15:05;28.03;;;17.00;;
18693;SDS011;9477;51.414;10.362;2023-02-11T10:17:19;33.00;;;20.70;;
18693;SDS011;9477;51.414;10.362;2023-02-11T10:19:34;29.50;;;18.07;;
18693;SDS011;9477;51.414;10.362;2023-02-11T10:21:48;28.83;;;18.70;;
18693;SDS011;9477;51.414;10.362;2023-02-11T10:23:55;30.93;;;20.30;;
18693;SDS011;9477;51.414;10.362;2023-02-11T10:26:07;30.60;;;20.10;;
18693;SDS011;9477;51.414;10.362;2023-02-11T10:28:14;28.83;;;16.97;;
18693;SDS011;9477;51.414;10.362;2023-02-11T10:30:20;32.13;;;20.37;;
18693;SDS011;9477;51.414;10.362;2023-02-11T10:32:29;27.83;;;18.60;;
18693;SDS011;9477;51.414;10.362;2023-02-11T10:34:37;31.83;;;19.77;;
18693;SDS011;9477;51.414;10.362;2023-02-11T10:36:43;29.27;;;18.50;;
18693;SDS011;9477;51.414;10.362;2023-02-11T10:38:46;30.53;;;19.97;;
18693;SDS011;9477;51.414;10.362;2023-02-11T10:40:49;30.27;;;19.80;;
18693;SDS011;9477;51.414;10.362;2023-02-11T10:43:00;28.13;;;18.03;;
18693;SDS011;9477;51.414;10.362;2023-02-11T10:45:06;24.53;;;14.57;;
18693;SDS011;9477;51.414;10.362;2023-02-11T10:47:16;26.23;;;17.33;;
18693;SDS011;9477;51.414;10.362;2023-02-11T10:49:32;28.03;;;16.80;;
18693;SDS011;9477;51.414;10.362;2023-02-11T10:51:36;29.53;;;18.10;;
18693;SDS011;9477;51.414;10.362;2023-02-11T10:53:40;23.77;;;16.33;;
18693;SDS011;9477;51.414;10.362;2023-02-11T10:55:47;22.70;;;14.93;;
18693;SDS011;9477;51.414;10.362;2023-02-11T10:57:54;24.37;;;15.67;;
18693;SDS011;9477;51.414;10.362;2023-02-11T10:59:59;21.07;;;14.27;;
18693;SDS011;9477;51.414;10.362;2023-02-11T11:02:17;28.67;;;15.73;;
18693;SDS011;9477;51.414;10.362;2023-02-11T11:04:35;27.27;;;16.10;;
18693;SDS011;9477;51.414;10.362;2023-02-11T11:06:41;26.73;;;16.50;;
18693;SDS011;9477;51.414;10.362;2023-02-11T11:08:45;27.73;;;19.80;;
18693;SDS011;9477;51.414;10.362;2023-02-11T11:11:00;27.07;;;17.97;;
18693;SDS011;9477;51.414;10.362;2023-02-11T11:13:08;24.30;;;16.50;;
18693;SDS011;9477;51.414;10.362;2023-02-11T11:15:29;26.27;;;16.90;;
18693;SDS011;9477;51.414;10.362;2023-02-11T11:17:39;25.83;;;17.30;;
18693;SDS011;9477;51.414;10.362;2023-02-11T11:19:42;25.30;;;17.93;;
18693;SDS011;9477;51.414;10.362;2023-02-11T11:21:45;58.87;;;30.93;;
18693;SDS011;9477;51.414;10.362;2023-02-11T11:23:50;25.37;;;16.57;;
18693;SDS011;9477;51.414;10.362;2023-02-11T11:25:57;24.70;;;16.33;;
18693;SDS011;9477;51.414;10.362;2023-02-11T11:28:03;23.67;;;15.23;;
18693;SDS011;9477;51.414;10.362;2023-02-11T11:30:13;28.10;;;18.57;;
18693;SDS011;9477;51.414;10.362;2023-02-11T11:32:18;29.90;;;18.70;;
18693;SDS011;9477;51.414;10.362;2023-02-11T11:34:25;27.33;;;17.77;;
18693;SDS011;9477;51.414;10.362;2023-02-11T11:36:32;30.93;;;20.03;;
18693;SDS011;9477;51.414;10.362;2023-02-11T11:38:37;27.83;;;19.77;;
18693;SDS011;9477;51.414;10.362;2023-02-11T11:40:45;28.67;;;17.80;;
18693;SDS011;9477;51.414;10.362;2023-02-11T11:43:16;29.90;;;18.93;;
18693;SDS011;9477;51.414;10.362;2023-02-11T11:45:25;33.00;;;20.90;;
18693;SDS011;9477;51.414;10.362;2023-02-11T11:47:30;24.97;;;16.97;;
18693;SDS011;9477;51.414;10.362;2023-02-11T11:49:38;31.23;;;20.13;;
18693;SDS011;9477;51.414;10.362;2023-02-11T11:51:47;31.03;;;18.77;;
18693;SDS011;9477;51.414;10.362;2023-02-11T11:54:11;28.37;;;17.87;;
18693;SDS011;9477;51.414;10.362;2023-02-11T11:56:17;32.40;;;19.80;;
18693;SDS011;9477;51.414;10.362;2023-02-11T11:58:23;31.13;;;18.80;;
18693;SDS011;9477;51.414;10.362;2023-02-11T12:00:30;32.43;;;20.50;;
18693;SDS011;9477;51.414;10.362;2023-02-11T12:02:59;34.60;;;21.23;;
18693;SDS011;9477;51.414;10.362;2023-02-11T12:05:24;33.27;;;21.80;;
18693;SDS011;9477;51.414;10.362;2023-02-11T12:07:33;33.43;;;20.53;;
18693;SDS011;9477;51.414;10.362;2023-02-11T12:09:47;34.60;;;21.20;;
18693;SDS011;9477;51.414;10.362;2023-02-11T12:12:09;37.90;;;22.60;;
18693;SDS011;9477;51.414;10.362;2023-02-11T12:14:24;27.03;;;18.73;;
18693;SDS011;9477;51.414;10.362;2023-02-11T12:16:38;32.73;;;22.33;;
18693;SDS011;9477;51.414;10.362;2023-02-11T12:21:27;38.37;;;21.53;;